Погода Збенинына неделю

Поморское воеводство, Польша

18 - 24 июля
  • 18июля
    Сегодня
    +13°
    +23°
    Практически безоблачно
    ВремяПогодаТемператураВлажностьДавлениеВетер, м/сВероятность осадков
    02:00Ясно и безоблачно+16°C85 %750 мм2.3 м/с2 %
    05:00Ясно и безоблачно+14°C92 %750 мм2.4 м/с2 %
    08:00Облачно с прояснениями+17°C82 %751 мм3.2 м/с6 %
    11:00Облачно с прояснениями+20°C69 %752 мм3.8 м/с39 %
    14:00Практически безоблачно+22°C59 %752 мм4.4 м/с11 %
    17:00Практически безоблачно+22°C57 %752 мм4.0 м/с2 %
    20:00Ясно и безоблачно+20°C72 %752 мм2.2 м/с2 %
    23:00Облачно с прояснениями+15°C91 %752 мм1.6 м/с2 %
  • 19июля
    Пятница
    +13°
    +24°
    Небольшая облачность
    ВремяПогодаТемператураВлажностьДавлениеВетер, м/сВероятность осадков
    02:00Ясно и безоблачно+14°C92 %752 мм1.7 м/с2 %
    05:00Ясно и безоблачно+13°C92 %752 мм1.6 м/с2 %
    08:00Ясно и безоблачно+18°C76 %752 мм2.0 м/с2 %
    11:00Небольшая облачность+22°C59 %752 мм3.5 м/с2 %
    14:00Небольшая облачность+24°C54 %751 мм3.9 м/с2 %
    17:00Небольшая облачность+23°C53 %750 мм3.1 м/с2 %
    20:00Ясно и безоблачно+22°C71 %749 мм2.1 м/с2 %
    23:00Облачно с прояснениями+17°C87 %749 мм1.2 м/с2 %
  • 20июля
    Суббота
    +14°
    +25°
    Ясно и безоблачно
    ВремяПогодаТемператураВлажностьДавлениеВетер, м/сВероятность осадков
    02:00Небольшая облачность+15°C97 %748 мм1.2 м/с2 %
    05:00Небольшая облачность+14°C99 %748 мм1.0 м/с2 %
    08:00Ясно и безоблачно+18°C91 %747 мм0.7 м/с2 %
    11:00Ясно и безоблачно+22°C54 %747 мм1.8 м/с2 %
    14:00Ясно и безоблачно+25°C46 %746 мм2.7 м/с2 %
    17:00Ясно и безоблачно+25°C44 %745 мм2.3 м/с2 %
    20:00Ясно и безоблачно+23°C69 %745 мм1.3 м/с2 %
    23:00Ясно и безоблачно+17°C82 %744 мм1.9 м/с2 %
  • 21июля
    Воскресенье
    +16°
    +27°
    Ясно и безоблачно
    ВремяПогодаТемператураВлажностьДавлениеВетер, м/сВероятность осадков
    02:00Ясно и безоблачно+15°C94 %744 мм1.9 м/с2 %
    05:00Ясно и безоблачно+14°C95 %743 мм1.8 м/с2 %
    08:00Ясно и безоблачно+19°C82 %743 мм1.8 м/с2 %
    11:00Ясно и безоблачно+25°C61 %743 мм2.7 м/с2 %
    14:00Ясно и безоблачно+27°C49 %743 мм3.1 м/с2 %
    17:00Небольшая облачность+27°C44 %742 мм2.9 м/с4 %
    20:00Небольшая облачность+24°C64 %741 мм1.8 м/с4 %
    23:00Ясно и безоблачно+20°C74 %742 мм2.6 м/с4 %
  • 22июля
    Понедельник
    +12°
    +25°
    Пасмурно, дождь
    ВремяПогодаТемператураВлажностьДавлениеВетер, м/сВероятность осадков
    02:00Небольшая облачность+18°C77 %742 мм2.2 м/с4 %
    05:00Ясно и безоблачно+17°C84 %741 мм2.0 м/с18 %
    08:00Небольшая облачность+19°C72 %741 мм2.6 м/с35 %
    11:00Пасмурно, небольшой дождь+21°C65 %742 мм3.0 м/с51 %
    14:00Пасмурно, дождь+24°C84 %742 мм3.6 м/с62 %
    17:00Пасмурно, дождь+19°C92 %743 мм5.0 м/с63 %
    20:00Облачно с прояснениями, небольшой дождь+18°C87 %744 мм3.4 м/с35 %
    23:00Ясно и безоблачно+14°C89 %745 мм2.3 м/с18 %
Мы используем cookies
Соглашаюсь